createdAt,value
2019-05-11T00:00:05.873Z,20.30
2019-05-11T00:02:36.456Z,20.30
2019-05-11T00:05:08.018Z,20.30
2019-05-11T00:07:38.421Z,20.30
2019-05-11T00:10:08.938Z,20.30
2019-05-11T00:12:39.477Z,20.30
2019-05-11T00:15:09.850Z,20.30
2019-05-11T00:17:40.410Z,20.30
2019-05-11T00:20:10.947Z,20.30
2019-05-11T00:22:41.456Z,20.20
2019-05-11T00:25:11.952Z,20.20
2019-05-11T00:27:42.470Z,20.20
2019-05-11T00:30:12.960Z,20.20
2019-05-11T00:32:43.445Z,20.20
2019-05-11T00:35:13.761Z,20.20
2019-05-11T00:37:44.257Z,20.20
2019-05-11T00:40:15.198Z,20.20
2019-05-11T00:42:46.750Z,20.20
2019-05-11T00:45:17.153Z,20.20
2019-05-11T00:47:47.620Z,20.20
2019-05-11T00:50:18.011Z,20.20
2019-05-11T00:52:49.733Z,20.20
2019-05-11T00:55:20.100Z,20.20
2019-05-11T00:57:50.423Z,20.20
2019-05-11T01:00:20.751Z,20.20
2019-05-11T01:02:51.422Z,20.20
2019-05-11T01:05:21.753Z,20.20
2019-05-11T01:07:52.270Z,20.20
2019-05-11T01:10:33.683Z,20.20
2019-05-11T01:12:54.813Z,20.20
2019-05-11T01:15:25.303Z,20.20
2019-05-11T01:17:55.806Z,20.10
2019-05-11T01:20:26.281Z,20.20
2019-05-11T01:22:56.688Z,20.20
2019-05-11T01:25:28.141Z,20.20
2019-05-11T01:27:58.469Z,20.10
2019-05-11T01:30:28.878Z,20.10
2019-05-11T01:32:59.289Z,20.10
2019-05-11T01:35:29.719Z,20.10
2019-05-11T01:38:00.107Z,20.10
2019-05-11T01:40:30.521Z,20.10
2019-05-11T01:43:00.912Z,20.10
2019-05-11T01:45:31.334Z,20.10
2019-05-11T01:48:01.683Z,20.10
2019-05-11T01:50:32.158Z,20.10
2019-05-11T01:53:03.765Z,20.10
2019-05-11T01:55:34.149Z,20.10
2019-05-11T01:58:04.541Z,20.10
2019-05-11T02:00:34.921Z,20.10
2019-05-11T02:03:05.301Z,20.10
2019-05-11T02:05:35.618Z,20.10
2019-05-11T02:08:05.997Z,20.10
2019-05-11T02:10:36.431Z,20.10
2019-05-11T02:13:06.981Z,20.10
2019-05-11T02:15:37.352Z,20.10
2019-05-11T02:18:07.854Z,20.10
2019-05-11T02:20:38.148Z,20.10
2019-05-11T02:23:08.694Z,20.10
2019-05-11T02:25:39.044Z,20.00
2019-05-11T02:28:09.437Z,20.10
2019-05-11T02:30:39.853Z,20.10
2019-05-11T02:33:10.290Z,20.00
2019-05-11T02:35:40.951Z,20.10
2019-05-11T02:38:11.413Z,20.00
2019-05-11T02:40:41.770Z,20.10
2019-05-11T02:43:12.088Z,20.00
2019-05-11T02:45:43.227Z,20.10
2019-05-11T02:48:13.683Z,20.10
2019-05-11T02:50:44.145Z,20.10
2019-05-11T02:53:14.475Z,20.10
2019-05-11T02:55:44.902Z,20.10
2019-05-11T02:58:15.302Z,20.00
2019-05-11T03:00:45.758Z,20.00
2019-05-11T03:03:16.317Z,20.00
2019-05-11T03:05:46.846Z,20.00
2019-05-11T03:08:17.220Z,20.00
2019-05-11T03:10:47.700Z,20.10
2019-05-11T03:13:18.157Z,20.00
2019-05-11T03:15:48.623Z,20.00
2019-05-11T03:18:19.031Z,20.00
2019-05-11T03:20:49.617Z,20.00
2019-05-11T03:23:20.022Z,20.00
2019-05-11T03:25:50.487Z,20.00
2019-05-11T03:28:21.143Z,20.00
2019-05-11T03:30:51.656Z,20.00
2019-05-11T03:33:22.193Z,20.00
2019-05-11T03:35:52.646Z,20.00
2019-05-11T03:38:23.124Z,20.00
2019-05-11T03:40:54.483Z,20.00
2019-05-11T03:43:25.005Z,20.00
2019-05-11T03:45:55.355Z,20.00
2019-05-11T03:48:25.916Z,20.00
2019-05-11T03:50:56.360Z,20.00
2019-05-11T03:53:26.774Z,20.00
2019-05-11T03:55:57.229Z,20.00
2019-05-11T03:58:27.635Z,20.00
2019-05-11T04:00:58.040Z,20.00
2019-05-11T04:03:28.512Z,20.00
2019-05-11T04:05:58.983Z,20.00
2019-05-11T04:08:29.519Z,20.00
2019-05-11T04:10:59.898Z,20.00
2019-05-11T04:13:30.292Z,20.00
2019-05-11T04:16:00.725Z,20.00
2019-05-11T04:18:31.179Z,20.00
2019-05-11T04:21:01.581Z,20.00
2019-05-11T04:23:32.013Z,20.00
2019-05-11T04:26:02.364Z,20.00
2019-05-11T04:28:32.685Z,20.00
2019-05-11T04:31:03.083Z,20.00
2019-05-11T04:33:33.627Z,20.00
2019-05-11T04:36:04.139Z,20.00
2019-05-11T04:38:34.580Z,20.00
2019-05-11T04:41:05.031Z,20.00
2019-05-11T04:43:35.437Z,20.00
2019-05-11T04:46:05.954Z,20.00
2019-05-11T04:48:36.544Z,20.00
2019-05-11T04:51:07.184Z,20.00
2019-05-11T04:53:37.784Z,20.00
2019-05-11T04:56:20.162Z,20.00
2019-05-11T04:58:50.618Z,20.00
2019-05-11T05:01:21.116Z,20.00
2019-05-11T05:03:54.095Z,20.00
2019-05-11T05:06:24.603Z,20.00
2019-05-11T05:08:58.246Z,20.00
2019-05-11T05:11:30.761Z,20.00
2019-05-11T05:14:01.775Z,20.00
2019-05-11T05:16:31.846Z,20.00
2019-05-11T05:19:02.298Z,20.00
2019-05-11T05:21:32.612Z,20.00
2019-05-11T05:24:04.108Z,20.00
2019-05-11T05:26:34.555Z,20.00
2019-05-11T05:29:04.897Z,20.00
2019-05-11T05:31:35.475Z,20.00
2019-05-11T05:34:05.927Z,20.10
2019-05-11T05:36:36.433Z,20.10
2019-05-11T05:39:08.988Z,20.10
2019-05-11T05:41:39.894Z,20.10
2019-05-11T05:44:10.461Z,20.10
2019-05-11T05:46:40.889Z,20.10
2019-05-11T05:49:11.358Z,20.00
2019-05-11T05:51:41.833Z,20.10
2019-05-11T05:54:13.452Z,20.10
2019-05-11T05:56:43.993Z,20.10
2019-05-11T05:59:14.419Z,20.00
2019-05-11T06:01:44.836Z,20.10
2019-05-11T06:04:26.638Z,20.10
2019-05-11T06:06:57.134Z,20.00
2019-05-11T06:09:27.564Z,20.10
2019-05-11T06:11:57.976Z,20.10
2019-05-11T06:14:28.487Z,20.10
2019-05-11T06:16:58.917Z,20.10
2019-05-11T06:19:29.373Z,20.00
2019-05-11T06:21:59.803Z,20.10
2019-05-11T06:24:30.240Z,20.00
2019-05-11T06:27:00.579Z,20.10
2019-05-11T06:29:31.069Z,20.10
2019-05-11T06:32:01.360Z,20.00
2019-05-11T06:34:31.784Z,20.00
2019-05-11T06:37:02.149Z,20.10
2019-05-11T06:39:32.555Z,20.10
2019-05-11T06:42:02.878Z,20.10
2019-05-11T06:44:33.295Z,20.10
2019-05-11T06:47:03.716Z,20.10
2019-05-11T06:49:34.161Z,20.10
2019-05-11T06:52:04.557Z,20.10
2019-05-11T06:54:34.986Z,20.10
2019-05-11T06:57:05.498Z,20.10
2019-05-11T06:59:36.003Z,20.10
2019-05-11T07:02:06.471Z,20.10
2019-05-11T07:04:36.792Z,20.10
2019-05-11T07:07:07.273Z,20.10
2019-05-11T07:09:37.663Z,20.10
2019-05-11T07:12:08.203Z,20.10
2019-05-11T07:14:38.686Z,20.10
2019-05-11T07:17:09.165Z,20.10
2019-05-11T07:19:39.517Z,20.10
2019-05-11T07:22:09.952Z,20.10
2019-05-11T07:24:40.357Z,20.10
2019-05-11T07:27:10.860Z,20.10
2019-05-11T07:29:41.234Z,20.10
2019-05-11T07:32:22.366Z,20.10
2019-05-11T07:34:43.593Z,20.10
2019-05-11T07:37:14.779Z,20.20
2019-05-11T07:39:45.108Z,20.20
2019-05-11T07:42:17.860Z,20.20
2019-05-11T07:44:48.219Z,20.20
2019-05-11T07:47:18.884Z,20.10
2019-05-11T07:49:49.285Z,20.20
2019-05-11T07:52:20.093Z,20.20
2019-05-11T07:54:53.001Z,20.20
2019-05-11T07:57:22.536Z,20.20
2019-05-11T07:59:52.987Z,20.20
2019-05-11T08:02:23.353Z,20.20
2019-05-11T08:04:53.788Z,20.20
2019-05-11T08:07:25.288Z,20.20
2019-05-11T08:09:55.654Z,20.20
2019-05-11T08:12:28.290Z,20.20
2019-05-11T08:15:08.626Z,20.20
2019-05-11T08:17:30.024Z,20.20
2019-05-11T08:20:01.644Z,20.30
2019-05-11T08:22:44.052Z,20.30
2019-05-11T08:25:14.372Z,20.30
2019-05-11T08:27:44.700Z,20.30
2019-05-11T08:30:14.917Z,20.40
2019-05-11T08:32:45.328Z,20.30
2019-05-11T08:35:17.776Z,20.40
2019-05-11T08:37:48.002Z,20.40
2019-05-11T08:40:19.318Z,20.40
2019-05-11T08:42:49.725Z,20.40
2019-05-11T08:45:24.568Z,20.50
2019-05-11T08:47:52.026Z,20.50
2019-05-11T08:50:22.500Z,20.50
2019-05-11T08:52:52.799Z,20.50
2019-05-11T08:55:23.149Z,20.60
2019-05-11T08:57:53.698Z,20.50
2019-05-11T09:00:24.013Z,20.60
2019-05-11T09:02:54.349Z,20.60
2019-05-11T09:05:24.841Z,20.60
2019-05-11T09:07:57.555Z,20.60
2019-05-11T09:10:28.108Z,20.60
2019-05-11T09:12:59.190Z,20.60
2019-05-11T09:15:36.586Z,20.60
2019-05-11T09:18:01.957Z,20.70
2019-05-11T09:20:32.251Z,20.70
2019-05-11T09:23:02.565Z,20.70
2019-05-11T09:25:32.890Z,20.70
2019-05-11T09:28:03.367Z,20.70
2019-05-11T09:30:34.743Z,20.70
2019-05-11T09:33:05.505Z,20.70
2019-05-11T09:35:47.601Z,20.80
2019-05-11T09:38:08.275Z,20.80
2019-05-11T09:40:38.773Z,20.80
2019-05-11T09:43:09.191Z,20.80
2019-05-11T09:45:48.334Z,20.80
2019-05-11T09:48:11.755Z,20.80
2019-05-11T09:50:42.121Z,20.80
2019-05-11T09:53:12.504Z,20.80
2019-05-11T09:55:42.863Z,20.90
2019-05-11T09:58:13.463Z,20.90
2019-05-11T10:00:43.939Z,20.90
2019-05-11T10:03:15.380Z,20.90
2019-05-11T10:05:45.877Z,20.90
2019-05-11T10:08:37.914Z,20.90
2019-05-11T10:11:08.409Z,20.90
2019-05-11T10:13:39.127Z,20.90
2019-05-11T10:16:10.681Z,20.90
2019-05-11T10:18:41.261Z,20.90
2019-05-11T10:21:11.747Z,21.00
2019-05-11T10:23:42.552Z,21.00
2019-05-11T10:26:13.349Z,21.00
2019-05-11T10:28:43.754Z,21.00
2019-05-11T10:31:14.249Z,21.00
2019-05-11T10:33:44.734Z,21.00
2019-05-11T10:36:15.153Z,21.00
2019-05-11T10:38:45.460Z,21.00
2019-05-11T10:41:18.058Z,21.10
2019-05-11T10:43:48.985Z,21.10
2019-05-11T10:46:23.238Z,21.10
2019-05-11T10:48:51.730Z,21.10
2019-05-11T10:51:22.218Z,21.10
2019-05-11T10:53:52.667Z,21.10
2019-05-11T10:56:23.121Z,21.10
2019-05-11T10:58:53.592Z,21.10
2019-05-11T11:01:24.071Z,21.20
2019-05-11T11:03:58.693Z,21.10
2019-05-11T11:06:29.028Z,21.10
2019-05-11T11:08:59.402Z,21.10
2019-05-11T11:11:32.601Z,21.20
2019-05-11T11:14:03.021Z,21.10
2019-05-11T11:16:39.418Z,21.20
2019-05-11T11:19:07.529Z,21.20
2019-05-11T11:21:38.319Z,21.20
2019-05-11T11:24:09.079Z,21.20
2019-05-11T11:26:39.549Z,21.20
2019-05-11T11:29:10.040Z,21.20
2019-05-11T11:31:40.436Z,21.20
2019-05-11T11:34:10.859Z,21.20
2019-05-11T11:36:41.295Z,21.20
2019-05-11T11:39:11.706Z,21.20
2019-05-11T11:41:42.066Z,21.20
2019-05-11T11:44:12.496Z,21.20
2019-05-11T11:46:51.995Z,21.20
2019-05-11T11:49:14.956Z,21.30
2019-05-11T11:51:45.338Z,21.20
2019-05-11T11:54:17.959Z,21.20
2019-05-11T11:56:48.533Z,21.30
2019-05-11T11:59:19.178Z,21.30
2019-05-11T12:01:49.567Z,21.30
2019-05-11T12:04:20.007Z,21.20
2019-05-11T12:06:50.534Z,21.30
2019-05-11T12:09:21.031Z,21.30
2019-05-11T12:11:51.320Z,21.30
2019-05-11T12:14:21.932Z,21.30
2019-05-11T12:17:04.067Z,21.30
2019-05-11T12:19:24.418Z,21.30
2019-05-11T12:21:54.841Z,21.30
2019-05-11T12:24:25.230Z,21.30
2019-05-11T12:26:55.682Z,21.30
2019-05-11T12:29:28.139Z,21.30
2019-05-11T12:31:59.761Z,21.30
2019-05-11T12:34:30.224Z,21.30
2019-05-11T12:37:00.588Z,21.30
2019-05-11T12:39:30.995Z,21.30
2019-05-11T12:42:01.400Z,21.30
2019-05-11T12:44:32.041Z,21.30
2019-05-11T12:47:02.497Z,21.30
2019-05-11T12:49:32.887Z,21.30
2019-05-11T12:52:03.304Z,21.30
2019-05-11T12:54:34.102Z,21.30
2019-05-11T12:57:04.705Z,21.30
2019-05-11T12:59:35.164Z,21.30
2019-05-11T13:02:08.026Z,21.30
2019-05-11T13:04:38.480Z,21.30
2019-05-11T13:07:09.148Z,21.30
2019-05-11T13:09:39.563Z,21.30
2019-05-11T13:12:10.113Z,21.30
2019-05-11T13:14:40.513Z,21.30
2019-05-11T13:17:10.972Z,21.30
2019-05-11T13:19:41.321Z,21.30
2019-05-11T13:22:11.742Z,21.30
2019-05-11T13:24:42.145Z,21.30
2019-05-11T13:27:12.583Z,21.30
2019-05-11T13:29:42.902Z,21.30
2019-05-11T13:32:14.319Z,21.30
2019-05-11T13:34:44.723Z,21.30
2019-05-11T13:37:15.276Z,21.30
2019-05-11T13:39:45.707Z,21.30
2019-05-11T13:42:16.164Z,21.30
2019-05-11T13:44:47.850Z,21.30
2019-05-11T13:47:18.417Z,21.30
2019-05-11T13:49:48.896Z,21.30
2019-05-11T13:52:19.498Z,21.30
2019-05-11T13:54:50.009Z,21.30
2019-05-11T13:57:20.409Z,21.30
2019-05-11T13:59:50.807Z,21.30
2019-05-11T14:02:21.216Z,21.30
2019-05-11T14:04:51.591Z,21.30
2019-05-11T14:07:21.967Z,21.30
2019-05-11T14:09:53.405Z,21.30
2019-05-11T14:12:42.896Z,21.30
2019-05-11T14:15:13.362Z,21.30
2019-05-11T14:18:07.765Z,21.30
2019-05-11T14:20:37.850Z,21.30
2019-05-11T14:23:08.006Z,21.30
2019-05-11T14:25:38.364Z,21.30
2019-05-11T14:28:09.831Z,21.30
2019-05-11T14:30:40.141Z,21.30
2019-05-11T14:33:10.485Z,21.30
2019-05-11T14:35:40.903Z,21.30
2019-05-11T14:38:12.492Z,21.30
2019-05-11T14:40:42.821Z,21.30
2019-05-11T14:43:13.311Z,21.30
2019-05-11T14:45:43.775Z,21.30
2019-05-11T14:48:24.201Z,21.30
2019-05-11T14:50:48.723Z,21.30
2019-05-11T14:53:18.437Z,21.30
2019-05-11T14:55:49.021Z,21.30
2019-05-11T14:58:20.060Z,21.30
2019-05-11T15:00:51.749Z,21.30
2019-05-11T15:03:22.212Z,21.30
2019-05-11T15:05:52.684Z,21.30
2019-05-11T15:08:23.045Z,21.30
2019-05-11T15:10:53.431Z,21.30
2019-05-11T15:13:43.034Z,21.30
2019-05-11T15:16:13.459Z,21.30
2019-05-11T15:18:43.882Z,21.30
2019-05-11T15:21:15.335Z,21.30
2019-05-11T15:23:47.773Z,21.30
2019-05-11T15:26:18.711Z,21.30
2019-05-11T15:28:49.412Z,21.30
2019-05-11T15:31:22.420Z,21.30
2019-05-11T15:33:51.775Z,21.30
2019-05-11T15:36:22.172Z,21.30
2019-05-11T15:38:52.641Z,21.30
2019-05-11T15:41:23.052Z,21.30
2019-05-11T15:43:54.605Z,21.30
2019-05-11T15:46:24.998Z,21.30
2019-05-11T15:49:00.423Z,21.30
2019-05-11T15:51:29.123Z,21.30
2019-05-11T15:53:59.257Z,21.30
2019-05-11T15:56:29.689Z,21.30
2019-05-11T15:58:59.999Z,21.20
2019-05-11T16:01:30.387Z,21.30
2019-05-11T16:04:24.123Z,21.20
2019-05-11T16:06:57.511Z,21.20
2019-05-11T16:09:29.080Z,21.20
2019-05-11T16:11:59.485Z,21.20
2019-05-11T16:14:30.974Z,21.20
2019-05-11T16:17:01.357Z,21.20
2019-05-11T16:19:31.819Z,21.30
2019-05-11T16:22:02.263Z,21.20
2019-05-11T16:24:32.631Z,21.20
2019-05-11T16:27:03.170Z,21.20
2019-05-11T16:29:33.607Z,21.20
2019-05-11T16:32:04.026Z,21.20
2019-05-11T16:34:34.378Z,21.20
2019-05-11T16:37:05.562Z,21.20
2019-05-11T16:39:38.465Z,21.20
2019-05-11T16:42:08.740Z,21.20
2019-05-11T16:44:39.197Z,21.20
2019-05-11T16:47:09.587Z,21.20
2019-05-11T16:49:40.090Z,21.20
2019-05-11T16:52:10.431Z,21.20
2019-05-11T16:54:40.844Z,21.20
2019-05-11T16:57:11.283Z,21.20
2019-05-11T16:59:42.252Z,21.20
2019-05-11T17:02:12.584Z,21.20
2019-05-11T17:04:43.024Z,21.20
2019-05-11T17:07:13.350Z,21.20
2019-05-11T17:09:43.840Z,21.20
2019-05-11T17:12:14.211Z,21.20
2019-05-11T17:14:58.548Z,21.20
2019-05-11T17:17:29.151Z,21.20
2019-05-11T17:19:59.623Z,21.10
2019-05-11T17:22:30.072Z,21.20
2019-05-11T17:25:00.791Z,21.10
2019-05-11T17:27:31.110Z,21.10
2019-05-11T17:30:01.549Z,21.10
2019-05-11T17:32:33.080Z,21.20
2019-05-11T17:35:03.625Z,21.10
2019-05-11T17:37:34.073Z,21.10
2019-05-11T17:40:04.537Z,21.10
2019-05-11T17:42:37.477Z,21.10
2019-05-11T17:45:08.054Z,21.10
2019-05-11T17:47:38.919Z,21.10
2019-05-11T17:50:09.439Z,21.10
2019-05-11T17:52:39.833Z,21.10
2019-05-11T17:55:10.187Z,21.10
2019-05-11T17:57:41.669Z,21.10
2019-05-11T18:00:11.973Z,21.10
2019-05-11T18:02:42.373Z,21.10
2019-05-11T18:07:53.338Z,21.10
2019-05-11T18:10:23.712Z,21.10
2019-05-11T18:12:54.137Z,21.00
2019-05-11T18:15:24.420Z,21.00
2019-05-11T18:17:54.973Z,21.00
2019-05-11T18:20:25.441Z,21.00
2019-05-11T18:22:57.727Z,21.00
2019-05-11T18:25:28.768Z,21.00
2019-05-11T18:27:59.423Z,21.00
2019-05-11T18:30:29.832Z,21.00
2019-05-11T18:33:00.092Z,21.00
2019-05-11T18:35:30.366Z,21.00
2019-05-11T18:38:00.743Z,21.00
2019-05-11T18:40:31.165Z,21.00
2019-05-11T18:43:01.495Z,21.00
2019-05-11T18:45:31.891Z,21.00
2019-05-11T18:48:02.410Z,20.90
2019-05-11T18:50:34.011Z,20.90
2019-05-11T18:53:04.531Z,20.90
2019-05-11T18:55:34.908Z,20.90
2019-05-11T18:58:05.319Z,20.90
2019-05-11T19:00:38.039Z,20.90
2019-05-11T19:03:08.825Z,20.80
2019-05-11T19:05:39.387Z,20.90
2019-05-11T19:08:28.890Z,20.90
2019-05-11T19:10:59.254Z,20.90
2019-05-11T19:13:29.617Z,20.80
2019-05-11T19:16:00.198Z,20.80
2019-05-11T19:18:30.668Z,20.80
2019-05-11T19:21:01.048Z,20.80
2019-05-11T19:23:31.296Z,20.80
2019-05-11T19:26:01.771Z,20.80
2019-05-11T19:28:32.224Z,20.70
2019-05-11T19:31:02.655Z,20.70
2019-05-11T19:33:33.059Z,20.70
2019-05-11T19:36:03.502Z,20.70
2019-05-11T19:38:34.012Z,20.70
2019-05-11T19:41:04.427Z,20.70
2019-05-11T19:43:34.816Z,20.70
2019-05-11T19:46:05.292Z,20.70
2019-05-11T19:48:38.507Z,20.70
2019-05-11T19:51:11.792Z,20.70
2019-05-11T19:53:41.252Z,20.70
2019-05-11T19:56:11.653Z,20.70
2019-05-11T19:58:42.124Z,20.60
2019-05-11T20:01:12.590Z,20.60
2019-05-11T20:03:43.060Z,20.60
2019-05-11T20:06:13.651Z,20.60
2019-05-11T20:08:44.014Z,20.60
2019-05-11T20:11:14.543Z,20.60
2019-05-11T20:13:44.921Z,20.60
2019-05-11T20:16:15.389Z,20.60
2019-05-11T20:18:47.358Z,20.60
2019-05-11T20:21:22.578Z,20.60
2019-05-11T20:23:49.835Z,20.50
2019-05-11T20:26:20.181Z,20.50
2019-05-11T20:28:50.559Z,20.50
2019-05-11T20:31:20.911Z,20.50
2019-05-11T20:33:51.320Z,20.50
2019-05-11T20:36:21.840Z,20.50
2019-05-11T20:38:52.255Z,20.50
2019-05-11T20:41:22.708Z,20.50
2019-05-11T20:43:53.140Z,20.50
2019-05-11T20:46:23.674Z,20.50
2019-05-11T20:48:57.984Z,20.40
2019-05-11T20:51:34.153Z,20.40
2019-05-11T20:54:01.648Z,20.40
2019-05-11T20:56:32.093Z,20.40
2019-05-11T20:59:02.585Z,20.40
2019-05-11T21:01:33.108Z,20.40
2019-05-11T21:04:03.600Z,20.40
2019-05-11T21:06:34.133Z,20.40
2019-05-11T21:09:06.624Z,20.40
2019-05-11T21:11:37.004Z,20.40
2019-05-11T21:14:07.982Z,20.30
2019-05-11T21:16:39.730Z,20.30
2019-05-11T21:19:10.055Z,20.30
2019-05-11T21:21:50.170Z,20.30
2019-05-11T21:24:12.559Z,20.30
2019-05-11T21:26:42.990Z,20.30
2019-05-11T21:29:13.543Z,20.30
2019-05-11T21:31:43.931Z,20.30
2019-05-11T21:34:14.360Z,20.30
2019-05-11T21:36:44.773Z,20.20
2019-05-11T21:39:15.317Z,20.20
2019-05-11T21:41:47.742Z,20.20
2019-05-11T21:44:18.902Z,20.20
2019-05-11T21:46:49.391Z,20.20
2019-05-11T21:49:19.804Z,20.20
2019-05-11T21:52:03.635Z,20.20
2019-05-11T21:54:22.310Z,20.20
2019-05-11T21:56:52.712Z,20.20
2019-05-11T21:59:23.215Z,20.20
2019-05-11T22:01:53.574Z,20.20
2019-05-11T22:04:24.056Z,20.10
2019-05-11T22:06:54.489Z,20.10
2019-05-11T22:09:24.947Z,20.10
2019-05-11T22:11:55.347Z,20.10
2019-05-11T22:14:29.675Z,20.10
2019-05-11T22:17:00.200Z,20.10
2019-05-11T22:19:29.843Z,20.10
2019-05-11T22:22:00.265Z,20.10
2019-05-11T22:24:30.597Z,20.10
2019-05-11T22:27:01.047Z,20.10
2019-05-11T22:29:31.443Z,20.10
2019-05-11T22:32:01.775Z,20.00
2019-05-11T22:34:32.198Z,20.10
2019-05-11T22:37:02.690Z,20.10
2019-05-11T22:39:33.054Z,20.00
2019-05-11T22:42:03.573Z,20.10
2019-05-11T22:44:35.873Z,20.10
2019-05-11T22:47:06.057Z,20.00
2019-05-11T22:49:36.402Z,20.00
2019-05-11T22:52:08.661Z,20.00
2019-05-11T22:54:38.861Z,20.00
2019-05-11T22:57:09.239Z,20.00
2019-05-11T22:59:39.712Z,20.00
2019-05-11T23:02:10.845Z,20.00
2019-05-11T23:04:41.518Z,20.00
2019-05-11T23:07:11.927Z,20.00
2019-05-11T23:09:42.398Z,20.00
2019-05-11T23:12:12.731Z,20.00
2019-05-11T23:14:43.236Z,20.00
2019-05-11T23:17:13.686Z,20.00
2019-05-11T23:19:44.300Z,20.00
2019-05-11T23:22:14.718Z,20.00
2019-05-11T23:24:45.146Z,20.00
2019-05-11T23:27:15.572Z,20.00
2019-05-11T23:29:47.682Z,20.00
2019-05-11T23:32:18.120Z,20.00
2019-05-11T23:34:48.453Z,20.00
2019-05-11T23:37:18.977Z,20.00
2019-05-11T23:39:49.516Z,20.00
2019-05-11T23:42:19.969Z,20.00
2019-05-11T23:44:50.329Z,20.00
2019-05-11T23:47:20.819Z,20.00
2019-05-11T23:49:51.260Z,20.00
2019-05-11T23:52:21.748Z,20.00
2019-05-11T23:54:52.167Z,20.00
2019-05-11T23:57:22.601Z,20.00
2019-05-11T23:59:53.014Z,20.00
